Time;durP1;ratioP1;P1;durP2;ratioP2;P2;SDS_P1;SDS_P2;PMS_P1;PMS_P2;Temp;Humidity;BMP_temperature;BMP_pressure;BME280_temperature;BME280_humidity;BME280_pressure;Samples;Min_cycle;Max_cycle;Signal;HPM_P1;HPM_P2
2022/10/17 00:00:06;;;;;;;10.90;3.25;;;;;;;14.05;58.01;93621.16;2048232;70;20185;-75
2022/10/17 00:02:32;;;;;;;7.85;2.92;;;;;;;14.00;59.54;93625.81;2048362;70;20717;-77
2022/10/17 00:04:58;;;;;;;13.52;3.38;;;;;;;13.98;58.85;93628.53;2048187;70;20166;-77
2022/10/17 00:07:24;;;;;;;9.32;3.00;;;;;;;13.75;59.51;93629.22;2048052;70;20156;-77
2022/10/17 00:09:49;;;;;;;8.43;3.30;;;;;;;13.62;59.90;93629.78;2048008;70;20158;-77
2022/10/17 00:12:15;;;;;;;9.10;3.20;;;;;;;13.72;59.12;93628.34;2048355;70;20150;-76
2022/10/17 00:14:41;;;;;;;9.63;3.30;;;;;;;13.76;59.25;93642.00;2048118;70;20197;-77
2022/10/17 00:17:06;;;;;;;9.35;3.45;;;;;;;13.75;58.96;93639.81;2048000;70;20150;-77
2022/10/17 00:19:32;;;;;;;6.53;2.88;;;;;;;13.68;58.05;93635.81;2048219;70;20549;-77
2022/10/17 00:21:57;;;;;;;9.43;3.47;;;;;;;13.70;58.02;93638.81;2048487;70;20146;-78
2022/10/17 00:24:23;;;;;;;7.38;3.20;;;;;;;13.64;58.61;93633.47;2047355;70;20158;-76
2022/10/17 00:26:48;;;;;;;7.32;3.25;;;;;;;13.72;58.62;93636.09;2047419;70;20157;-76
2022/10/17 00:29:15;;;;;;;7.20;2.65;;;;;;;13.27;60.18;93633.19;2048212;70;20261;-77
2022/10/17 00:31:41;;;;;;;8.77;3.30;;;;;;;13.46;58.86;93643.59;2048298;70;20147;-76
2022/10/17 00:34:06;;;;;;;6.15;2.80;;;;;;;13.55;58.52;93636.38;2048140;70;20300;-77
2022/10/17 00:36:33;;;;;;;6.28;2.92;;;;;;;13.59;58.10;93639.47;2044553;70;20557;-78
2022/10/17 00:38:59;;;;;;;9.75;2.95;;;;;;;13.51;58.03;93648.19;2048291;70;20202;-77
2022/10/17 00:41:29;;;;;;;8.05;3.08;;;;;;;13.65;57.45;93645.53;2044658;70;20291;-77
2022/10/17 00:44:29;;;;;;;8.30;3.38;;;;;;;13.60;58.37;93643.78;2048537;70;20150;-77
2022/10/17 00:47:04;;;;;;;12.98;3.53;;;;;;;13.64;58.07;93650.44;2048104;70;20146;-77
2022/10/17 00:49:34;;;;;;;8.65;2.50;;;;;;;13.67;58.14;93648.50;2048569;70;20150;-78
2022/10/17 00:52:22;;;;;;;7.78;2.72;;;;;;;13.39;59.33;93653.78;2048497;70;20511;-78
2022/10/17 00:54:53;;;;;;;10.77;3.17;;;;;;;13.58;58.11;93663.47;2048506;70;20139;-77
2022/10/17 00:57:19;;;;;;;6.50;2.88;;;;;;;13.52;57.72;93651.78;2047639;70;20166;-78
2022/10/17 00:59:50;;;;;;;8.27;3.22;;;;;;;13.45;58.27;93645.69;2048677;70;20514;-76
2022/10/17 01:02:19;;;;;;;11.95;3.17;;;;;;;13.40;58.41;93651.72;2048284;70;20158;-76
2022/10/17 01:04:49;;;;;;;6.05;2.97;;;;;;;13.37;58.20;93644.44;2048563;70;20311;-77
2022/10/17 01:07:15;;;;;;;8.95;3.30;;;;;;;13.35;58.31;93649.97;2048478;70;20154;-77
2022/10/17 01:09:43;;;;;;;9.52;3.10;;;;;;;13.28;58.34;93654.47;2047691;70;20209;-77
2022/10/17 01:12:12;;;;;;;9.68;2.83;;;;;;;13.19;58.78;93655.25;2044933;70;20316;-77
2022/10/17 01:14:47;;;;;;;9.13;3.00;;;;;;;13.20;58.14;93648.25;2047541;70;20274;-77
2022/10/17 01:17:42;;;;;;;6.85;3.00;;;;;;;13.31;57.06;93652.53;2044759;70;20174;-76
2022/10/17 01:20:21;;;;;;;8.93;3.00;;;;;;;13.23;57.89;93647.78;2048668;70;20209;-77
2022/10/17 01:23:24;;;;;;;10.23;3.00;;;;;;;13.09;58.91;93649.66;2048420;70;20155;-77
2022/10/17 01:26:21;;;;;;;8.85;3.00;;;;;;;12.96;59.54;93650.94;2050582;70;20241;-77
2022/10/17 01:29:21;;;;;;;8.13;3.08;;;;;;;13.11;58.82;93649.06;2050631;70;20142;-78
2022/10/17 01:31:54;;;;;;;7.35;2.80;;;;;;;13.10;58.84;93654.00;2047385;70;20163;-78
2022/10/17 01:34:31;;;;;;;6.20;2.75;;;;;;;13.16;58.50;93645.91;2047589;70;20147;-78
2022/10/17 01:37:13;;;;;;;15.35;3.25;;;;;;;13.15;58.41;93641.59;2048382;70;20211;-77
2022/10/17 01:39:51;;;;;;;7.43;2.55;;;;;;;13.30;57.98;93639.72;2044816;70;20151;-78
2022/10/17 01:42:32;;;;;;;5.70;2.80;;;;;;;13.17;57.56;93644.56;2048336;70;20162;-78
2022/10/17 01:45:06;;;;;;;7.55;2.65;;;;;;;13.09;58.27;93644.00;2048559;70;20142;-77
2022/10/17 01:47:33;;;;;;;9.55;2.60;;;;;;;12.95;59.17;93640.97;2048350;70;20158;-77
2022/10/17 01:50:06;;;;;;;9.15;2.70;;;;;;;12.97;59.05;93641.13;2042185;70;20162;-76
2022/10/17 01:52:40;;;;;;;7.60;2.63;;;;;;;13.02;59.05;93638.56;2044896;70;20170;-77
2022/10/17 01:55:12;;;;;;;5.50;2.47;;;;;;;12.98;58.75;93645.44;2044836;70;20155;-77
2022/10/17 01:57:42;;;;;;;7.93;2.90;;;;;;;12.98;58.01;93642.59;2050623;70;20134;-76
2022/10/17 02:00:13;;;;;;;9.95;2.72;;;;;;;13.03;57.75;93643.59;2047517;70;20217;-77
2022/10/17 02:02:42;;;;;;;8.43;2.90;;;;;;;12.89;58.54;93643.41;2048285;70;20154;-77
2022/10/17 02:05:08;;;;;;;5.57;2.50;;;;;;;12.96;57.39;93639.63;2048466;70;20150;-77
2022/10/17 02:07:34;;;;;;;7.18;2.75;;;;;;;12.93;57.65;93643.69;2044831;70;20146;-77
2022/10/17 02:10:00;;;;;;;5.75;2.80;;;;;;;12.83;57.52;93633.75;2047492;70;20155;-77
2022/10/17 02:12:49;;;;;;;11.50;3.10;;;;;;;12.92;56.88;93645.03;2047345;70;20159;-77
2022/10/17 02:15:34;;;;;;;5.18;2.60;;;;;;;12.96;57.03;93639.63;2048471;70;20575;-77
2022/10/17 02:18:22;;;;;;;4.38;2.25;;;;;;;12.97;56.81;93646.78;2047554;70;20147;-77
2022/10/17 02:20:54;;;;;;;11.02;2.72;;;;;;;12.76;58.80;93640.34;2047510;70;20213;-76
2022/10/17 02:23:39;;;;;;;7.70;2.88;;;;;;;12.80;57.96;93635.72;2048418;70;20134;-77
2022/10/17 02:26:19;;;;;;;9.05;2.78;;;;;;;12.63;59.03;93633.13;2044793;70;20241;-77
2022/10/17 02:29:04;;;;;;;4.82;2.63;;;;;;;12.71;57.50;93637.25;2048352;70;20150;-76
2022/10/17 02:31:45;;;;;;;5.43;2.30;;;;;;;12.70;57.63;93638.59;2050448;70;20614;-77
2022/10/17 02:34:18;;;;;;;4.93;2.53;;;;;;;12.53;57.97;93643.75;2050537;70;20179;-77
2022/10/17 02:37:00;;;;;;;7.93;2.58;;;;;;;12.67;58.25;93642.63;2048417;70;20657;-75
2022/10/17 02:39:29;;;;;;;7.97;3.00;;;;;;;12.64;58.56;93645.91;2050592;70;20150;-76
2022/10/17 02:42:00;;;;;;;6.65;2.60;;;;;;;12.64;58.69;93651.56;2047491;70;20145;-77
2022/10/17 02:44:28;;;;;;;8.23;2.50;;;;;;;12.55;59.03;93649.53;2048463;70;20159;-76
2022/10/17 02:47:06;;;;;;;8.90;2.42;;;;;;;12.62;58.09;93643.69;2048139;70;20148;-76
2022/10/17 02:49:38;;;;;;;9.00;2.95;;;;;;;12.67;57.81;93647.53;2047489;70;20158;-76
2022/10/17 02:52:22;;;;;;;6.50;2.63;;;;;;;12.50;59.18;93653.41;2048228;70;20545;-77
2022/10/17 02:55:02;;;;;;;5.60;2.47;;;;;;;12.53;58.48;93647.31;2050528;70;20275;-77
2022/10/17 02:57:28;;;;;;;8.23;2.53;;;;;;;12.50;58.49;93644.94;2047436;70;20242;-77
2022/10/17 02:59:57;;;;;;;4.75;2.33;;;;;;;12.07;59.98;93647.63;2048504;70;20158;-77
2022/10/17 03:02:23;;;;;;;5.72;2.60;;;;;;;12.28;59.20;93656.19;2048150;70;20162;-77
2022/10/17 03:04:49;;;;;;;7.93;2.75;;;;;;;12.32;58.90;93655.72;2044751;70;20224;-77
2022/10/17 03:07:15;;;;;;;9.02;2.70;;;;;;;12.11;59.84;93654.31;2048225;70;20582;-78
2022/10/17 03:09:40;;;;;;;7.88;2.65;;;;;;;12.12;60.70;93652.22;2047425;70;20185;-77
2022/10/17 03:12:06;;;;;;;4.57;2.10;;;;;;;12.26;59.29;93650.41;2048275;70;20703;-77
2022/10/17 03:14:33;;;;;;;3.03;2.00;;;;;;;12.20;59.78;93653.53;2050558;70;20174;-77
2022/10/17 03:16:58;;;;;;;7.22;2.28;;;;;;;12.21;59.73;93654.28;2044608;70;20222;-77
2022/10/17 03:19:25;;;;;;;7.80;2.22;;;;;;;12.29;59.17;93648.47;2047493;70;20147;-77
2022/10/17 03:21:51;;;;;;;3.45;2.33;;;;;;;11.99;61.02;93647.81;2047494;70;20529;-77
2022/10/17 03:24:17;;;;;;;6.90;2.67;;;;;;;11.95;60.68;93653.16;2047585;70;20619;-77
2022/10/17 03:26:43;;;;;;;5.03;2.67;;;;;;;12.04;60.10;93654.47;2045287;70;20626;-77
2022/10/17 03:29:08;;;;;;;12.70;3.05;;;;;;;11.62;62.69;93659.28;2048817;70;20174;-76
2022/10/17 03:31:35;;;;;;;5.78;2.45;;;;;;;11.80;61.07;93661.94;2045086;70;20598;-77
2022/10/17 03:34:02;;;;;;;5.07;2.65;;;;;;;11.95;60.45;93661.63;2051013;70;20150;-77
2022/10/17 03:36:28;;;;;;;9.57;2.95;;;;;;;11.97;60.32;93663.88;2048785;70;20191;-76
2022/10/17 03:38:54;;;;;;;4.45;2.40;;;;;;;12.04;60.63;93665.75;2045067;70;20145;-76
2022/10/17 03:41:21;;;;;;;5.03;2.80;;;;;;;12.16;58.83;93675.84;2045186;70;20142;-75
2022/10/17 03:43:47;;;;;;;5.93;2.95;;;;;;;12.07;59.21;93673.03;2047944;70;20158;-77
2022/10/17 03:46:13;;;;;;;7.60;2.55;;;;;;;12.02;58.94;93677.66;2044999;70;20634;-76
2022/10/17 03:48:38;;;;;;;2.92;2.33;;;;;;;12.02;58.53;93683.31;2047960;70;20135;-77
2022/10/17 03:51:07;;;;;;;4.72;2.85;;;;;;;12.15;58.14;93679.25;2047921;70;20163;-76
2022/10/17 03:53:38;;;;;;;4.82;2.35;;;;;;;12.09;59.34;93690.09;2048065;70;20217;-77
2022/10/17 03:56:28;;;;;;;8.43;4.60;;;;;;;11.91;59.25;93676.22;2050967;70;20170;-77
2022/10/17 03:59:03;;;;;;;9.18;2.92;;;;;;;12.00;58.67;93691.59;2045194;70;20166;-77
2022/10/17 04:01:31;;;;;;;6.20;3.08;;;;;;;12.01;58.45;93689.56;2047792;70;20189;-75
2022/10/17 04:03:58;;;;;;;7.68;2.60;;;;;;;12.06;59.22;93677.22;2048689;70;20143;-77
2022/10/17 04:06:27;;;;;;;10.15;3.08;;;;;;;12.03;58.78;93681.97;2047817;70;20163;-77
2022/10/17 04:08:53;;;;;;;5.90;2.50;;;;;;;12.11;57.98;93679.72;2047766;70;20172;-77
2022/10/17 04:11:25;;;;;;;6.82;2.75;;;;;;;11.98;59.18;93682.28;2045132;70;20142;-77
2022/10/17 04:13:58;;;;;;;5.80;2.70;;;;;;;12.04;58.49;93685.53;2044999;70;20537;-77
2022/10/17 04:16:26;;;;;;;6.10;2.35;;;;;;;12.09;57.77;93685.19;2047607;70;20579;-77
2022/10/17 04:18:58;;;;;;;;;;;;;;;12.11;58.42;93690.28;2045244;70;20614;-77
2022/10/17 04:21:27;;;;;;;9.10;2.60;;;;;;;12.03;58.37;93690.44;2050739;70;20043;-77
2022/10/17 04:23:59;;;;;;;8.70;3.05;;;;;;;11.76;59.64;93687.03;2047760;70;20538;-77
2022/10/17 04:26:47;;;;;;;5.85;2.90;;;;;;;11.84;59.50;93696.84;2048250;70;20530;-76
2022/10/17 04:29:16;;;;;;;6.18;2.97;;;;;;;11.47;60.93;93696.25;2050630;70;20158;-76
2022/10/17 04:31:44;;;;;;;8.57;3.38;;;;;;;11.62;59.90;93692.38;2047491;70;20491;-76
2022/10/17 04:34:19;;;;;;;10.23;4.22;;;;;;;11.59;60.09;93693.56;2050660;70;20214;-77
2022/10/17 04:36:45;;;;;;;10.00;3.92;;;;;;;11.75;59.22;93696.84;2047648;70;20154;-76
2022/10/17 04:39:12;;;;;;;9.80;2.88;;;;;;;11.82;58.72;93696.72;2050595;70;20186;-77
2022/10/17 04:41:38;;;;;;;7.13;3.45;;;;;;;11.85;58.00;93697.59;2044817;70;20591;-77
2022/10/17 04:44:04;;;;;;;12.80;3.50;;;;;;;11.68;58.38;93704.88;2047616;70;20185;-77
2022/10/17 04:46:33;;;;;;;10.18;3.22;;;;;;;11.87;57.75;93698.47;2047429;70;20178;-76
2022/10/17 04:48:59;;;;;;;15.68;4.78;;;;;;;11.85;57.40;93701.16;2050575;70;20159;-77
2022/10/17 04:51:24;;;;;;;9.18;3.72;;;;;;;11.86;57.48;93699.81;2044802;70;20178;-76
2022/10/17 04:54:11;;;;;;;8.55;3.88;;;;;;;11.86;57.32;93707.53;2050740;70;20295;-76
2022/10/17 04:56:40;;;;;;;10.88;3.30;;;;;;;11.80;57.31;93704.25;2050605;70;20150;-75
2022/10/17 04:59:06;;;;;;;12.20;4.03;;;;;;;11.82;57.72;93705.19;2047546;70;20155;-75
2022/10/17 05:01:32;;;;;;;6.38;2.83;;;;;;;11.81;57.36;93700.09;2044717;70;20154;-77
2022/10/17 05:03:58;;;;;;;8.15;2.95;;;;;;;11.70;57.88;93705.00;2047615;70;20164;-77
2022/10/17 05:06:27;;;;;;;11.93;2.58;;;;;;;11.76;58.46;93704.69;2047535;70;20154;-76
2022/10/17 05:09:22;;;;;;;6.95;2.78;;;;;;;11.73;58.28;93693.84;2041436;70;20186;-77
2022/10/17 05:11:47;;;;;;;11.02;3.80;;;;;;;11.78;57.88;93696.38;2050614;70;20241;-76
2022/10/17 05:14:14;;;;;;;7.38;2.78;;;;;;;11.84;57.88;93698.94;2047549;70;20151;-76
2022/10/17 05:16:40;;;;;;;9.98;3.42;;;;;;;11.57;59.15;93696.97;2047349;70;20199;-76
2022/10/17 05:19:06;;;;;;;7.90;2.72;;;;;;;11.70;58.53;93695.78;2047598;70;20175;-76
2022/10/17 05:21:40;;;;;;;10.88;3.03;;;;;;;11.67;58.39;93694.91;2048487;70;20146;-77
2022/10/17 05:24:08;;;;;;;10.10;4.15;;;;;;;11.64;59.08;93698.94;2048392;70;20119;-75
2022/10/17 05:26:34;;;;;;;8.07;4.40;;;;;;;11.53;59.41;93698.75;2044809;70;20178;-76
2022/10/17 05:29:01;;;;;;;11.65;5.03;;;;;;;11.59;58.91;93699.97;2044767;70;20246;-77
2022/10/17 05:31:30;;;;;;;11.88;3.72;;;;;;;11.31;59.34;93700.69;2050469;70;20602;-76
2022/10/17 05:34:00;;;;;;;11.75;4.53;;;;;;;11.61;58.31;93705.75;2050587;70;20159;-77
2022/10/17 05:36:26;;;;;;;8.88;5.20;;;;;;;11.41;59.10;93709.91;2050645;70;20564;-77
2022/10/17 05:38:52;;;;;;;7.32;4.25;;;;;;;11.48;58.67;93711.09;2047568;70;20155;-77
2022/10/17 05:41:19;;;;;;;8.70;4.43;;;;;;;11.27;60.10;93711.66;2048460;70;20146;-77
2022/10/17 05:43:45;;;;;;;7.97;3.80;;;;;;;11.30;59.83;93704.84;2047661;70;20137;-78
2022/10/17 05:46:16;;;;;;;10.68;5.05;;;;;;;11.29;59.75;93709.00;2050433;70;20156;-77
2022/10/17 05:48:42;;;;;;;7.63;3.65;;;;;;;11.30;58.88;93708.41;2050551;70;20169;-75
2022/10/17 05:51:09;;;;;;;6.55;3.13;;;;;;;11.41;58.77;93712.72;2044806;70;20151;-76
2022/10/17 05:53:40;;;;;;;10.20;3.72;;;;;;;11.38;57.99;93725.94;2047551;70;20234;-75
2022/10/17 05:56:11;;;;;;;7.45;2.97;;;;;;;11.51;57.77;93733.22;2050659;70;20154;-76
2022/10/17 05:58:42;;;;;;;8.50;2.97;;;;;;;11.66;57.02;93726.53;2050573;70;20139;-77
2022/10/17 06:01:13;;;;;;;6.05;3.85;;;;;;;11.55;57.60;93735.59;2050623;70;20254;-77
2022/10/17 06:03:39;;;;;;;10.27;4.15;;;;;;;11.56;57.43;93732.16;2048624;70;20146;-77
2022/10/17 06:06:11;;;;;;;9.90;4.47;;;;;;;11.47;58.36;93735.72;2047590;70;20225;-76
2022/10/17 06:08:41;;;;;;;13.95;4.60;;;;;;;11.31;59.51;93746.53;2047591;70;20242;-76
2022/10/17 06:11:09;;;;;;;28.60;11.55;;;;;;;11.34;59.11;93742.53;2051982;70;20253;-77
2022/10/17 06:13:35;;;;;;;24.42;9.43;;;;;;;11.45;58.58;93749.66;2051507;70;20154;-77
2022/10/17 06:16:07;;;;;;;24.30;10.73;;;;;;;11.30;59.49;93755.59;2051437;70;20146;-77
2022/10/17 06:18:32;;;;;;;16.88;6.63;;;;;;;11.37;59.05;93751.91;2051681;70;20287;-76
2022/10/17 06:21:10;;;;;;;17.63;7.15;;;;;;;11.27;59.39;93759.56;2048455;70;20161;-76
2022/10/17 06:23:40;;;;;;;12.88;5.88;;;;;;;11.35;59.05;93763.00;2054094;70;20217;-78
2022/10/17 06:26:14;;;;;;;16.90;5.57;;;;;;;11.34;59.44;93762.28;2048139;70;20151;-78
2022/10/17 06:28:41;;;;;;;10.43;5.32;;;;;;;11.38;59.69;93767.47;2047860;70;20139;-77
2022/10/17 06:31:09;;;;;;;10.77;4.97;;;;;;;11.31;59.80;93768.34;2048938;70;20579;-76
2022/10/17 06:33:38;;;;;;;12.38;5.35;;;;;;;11.31;60.17;93763.44;2047919;70;20633;-76
2022/10/17 06:36:06;;;;;;;9.93;5.05;;;;;;;11.29;59.80;93768.19;2047828;70;20613;-77
2022/10/17 06:38:33;;;;;;;12.23;5.38;;;;;;;11.35;59.45;93765.81;2050789;70;20174;-75
2022/10/17 06:41:09;;;;;;;10.15;4.85;;;;;;;11.34;60.16;93770.00;2047558;70;20150;-76
2022/10/17 06:43:36;;;;;;;11.25;4.97;;;;;;;11.25;60.27;93774.28;2050643;70;20222;-75
2022/10/17 06:46:25;;;;;;;8.73;4.20;;;;;;;11.17;61.36;93774.41;2048240;70;20153;-76
2022/10/17 06:48:57;;;;;;;10.18;4.25;;;;;;;11.30;60.32;93778.88;2050647;70;20146;-75
2022/10/17 06:51:39;;;;;;;8.45;4.18;;;;;;;11.36;59.79;93785.00;2050597;70;20637;-76
2022/10/17 06:54:07;;;;;;;5.63;2.92;;;;;;;11.47;58.69;93789.31;2044863;70;20618;-75
2022/10/17 06:56:46;;;;;;;6.75;2.88;;;;;;;11.47;58.99;93792.13;2048324;70;20237;-76
2022/10/17 06:59:30;;;;;;;9.05;2.88;;;;;;;11.57;58.04;93803.41;2050155;70;20198;-75
2022/10/17 07:02:05;;;;;;;6.38;2.60;;;;;;;11.39;57.83;93802.78;2050315;70;20155;-76
2022/10/17 07:04:31;;;;;;;6.25;2.97;;;;;;;11.47;58.51;93800.59;2050472;70;20578;-76
2022/10/17 07:06:57;;;;;;;7.53;3.00;;;;;;;11.51;57.90;93805.78;2050332;70;20143;-78
2022/10/17 07:09:26;;;;;;;6.70;2.70;;;;;;;11.56;57.65;93799.13;2047409;70;20602;-76
2022/10/17 07:11:52;;;;;;;5.80;2.50;;;;;;;11.59;57.18;93798.69;2047349;70;20229;-76
2022/10/17 07:14:17;;;;;;;5.22;2.63;;;;;;;11.71;56.87;93801.66;2047388;70;20155;-77
2022/10/17 07:16:44;;;;;;;8.60;3.35;;;;;;;11.65;57.26;93806.84;2044382;70;20542;-77
2022/10/17 07:19:18;;;;;;;9.73;3.35;;;;;;;11.71;56.35;93802.38;2048320;70;20315;-78
2022/10/17 07:21:44;;;;;;;5.60;2.88;;;;;;;11.70;56.14;93808.63;2047429;70;20220;-73
2022/10/17 07:24:11;;;;;;;7.53;3.58;;;;;;;11.78;56.66;93803.59;2044592;70;20495;-76
2022/10/17 07:26:40;;;;;;;6.28;3.78;;;;;;;11.66;57.10;93809.06;2050865;70;20166;-77
2022/10/17 07:29:09;;;;;;;7.13;3.00;;;;;;;11.58;57.05;93810.53;2047354;70;20153;-77
2022/10/17 07:31:53;;;;;;;7.22;3.17;;;;;;;11.64;56.45;93808.19;2048110;70;20173;-76
2022/10/17 07:34:19;;;;;;;8.73;3.40;;;;;;;11.49;57.34;93816.91;2047429;70;20135;-77
2022/10/17 07:36:45;;;;;;;8.52;3.20;;;;;;;11.67;57.36;93821.81;2044630;70;20158;-77
2022/10/17 07:39:13;;;;;;;6.35;3.50;;;;;;;11.74;56.99;93823.03;2050355;70;20728;-77
2022/10/17 07:41:39;;;;;;;5.55;3.00;;;;;;;11.70;57.33;93817.09;2044638;70;20614;-77
2022/10/17 07:44:05;;;;;;;7.20;2.88;;;;;;;11.76;57.92;93811.88;2050345;70;20150;-77
2022/10/17 07:46:39;;;;;;;7.85;2.58;;;;;;;11.74;58.20;93806.13;2044483;70;20202;-78
2022/10/17 07:49:05;;;;;;;5.68;2.65;;;;;;;11.84;57.50;93812.53;2044550;70;20159;-77
2022/10/17 07:51:30;;;;;;;7.63;3.35;;;;;;;11.75;57.50;93818.88;2050314;70;20526;-78
2022/10/17 07:53:56;;;;;;;4.82;2.70;;;;;;;11.63;59.09;93813.06;2048193;70;20174;-78
2022/10/17 07:56:23;;;;;;;8.70;4.18;;;;;;;11.64;58.41;93816.66;2048251;70;20230;-76
2022/10/17 07:58:50;;;;;;;8.65;4.28;;;;;;;11.70;58.82;93820.66;2048143;70;20130;-76
2022/10/17 08:01:16;;;;;;;13.48;5.60;;;;;;;11.64;59.15;93817.38;2047981;70;20143;-77
2022/10/17 08:03:44;;;;;;;8.85;5.00;;;;;;;11.75;58.23;93820.97;2048097;70;20209;-77
2022/10/17 08:06:10;;;;;;;10.48;4.82;;;;;;;12.06;59.05;93829.63;2048086;70;20149;-76
2022/10/17 08:08:35;;;;;;;12.38;5.03;;;;;;;12.34;59.20;93825.28;2048121;70;20170;-77
2022/10/17 08:11:04;;;;;;;15.80;5.32;;;;;;;12.64;59.84;93813.31;2050648;70;20154;-78
2022/10/17 08:13:30;;;;;;;14.40;4.65;;;;;;;13.16;58.87;93815.53;2047637;70;20615;-77
2022/10/17 08:16:04;;;;;;;8.95;3.05;;;;;;;13.56;57.60;93810.44;2048409;70;20606;-76
2022/10/17 08:18:30;;;;;;;8.60;2.92;;;;;;;14.51;55.44;93806.75;2048564;70;20226;-76
2022/10/17 08:20:59;;;;;;;13.07;3.13;;;;;;;13.96;54.82;93801.81;2048498;70;20199;-77
2022/10/17 08:23:25;;;;;;;11.15;3.08;;;;;;;14.43;54.99;93806.94;2048409;70;20147;-77
2022/10/17 08:25:50;;;;;;;6.25;2.30;;;;;;;14.65;52.67;93793.47;2048504;70;20701;-77
2022/10/17 08:28:16;;;;;;;9.63;2.28;;;;;;;15.47;51.14;93797.13;2047675;70;20573;-77
2022/10/17 08:30:41;;;;;;;12.18;2.88;;;;;;;16.42;48.40;93800.50;2048397;70;20154;-77
2022/10/17 08:33:07;;;;;;;8.85;2.25;;;;;;;15.99;47.03;93793.13;2048597;70;20147;-76
2022/10/17 08:35:33;;;;;;;13.50;2.85;;;;;;;16.39;47.16;93793.22;2048460;70;20625;-77
2022/10/17 08:38:02;;;;;;;7.05;2.05;;;;;;;16.29;46.74;93795.50;2048520;70;20135;-76
2022/10/17 08:40:34;;;;;;;7.63;2.30;;;;;;;16.65;45.94;93799.66;2048506;70;20168;-77
2022/10/17 08:43:24;;;;;;;10.73;3.67;;;;;;;16.95;47.80;93800.63;2048594;70;20151;-77
2022/10/17 08:46:01;;;;;;;10.23;3.70;;;;;;;17.41;47.52;93795.94;2048343;70;20174;-76
2022/10/17 08:48:30;;;;;;;8.63;3.22;;;;;;;17.58;46.86;93795.44;2048560;70;20594;-77
2022/10/17 08:51:01;;;;;;;10.85;3.75;;;;;;;17.56;47.57;93797.47;2047704;70;20661;-77
2022/10/17 08:53:34;;;;;;;10.02;3.10;;;;;;;17.97;47.24;93789.66;2048579;70;20154;-76
2022/10/17 08:56:39;;;;;;;5.15;2.42;;;;;;;18.24;44.25;93791.72;2048529;70;20621;-76
2022/10/17 08:59:14;;;;;;;8.50;2.97;;;;;;;18.61;44.00;93792.78;2037116;70;20151;-76
2022/10/17 09:01:54;;;;;;;11.02;3.10;;;;;;;19.05;45.79;93785.59;2037391;70;20140;-77
2022/10/17 09:04:41;;;;;;;11.48;3.47;;;;;;;19.45;42.40;93783.88;2037423;70;20540;-76
2022/10/17 09:07:19;;;;;;;12.07;4.13;;;;;;;19.62;43.96;93782.50;2037383;70;20712;-75
2022/10/17 09:09:53;;;;;;;12.30;4.57;;;;;;;20.24;42.16;93785.88;2037423;70;20140;-76
2022/10/17 09:12:42;;;;;;;9.77;3.00;;;;;;;20.45;41.97;93784.59;2037389;70;20148;-76
2022/10/17 09:15:36;;;;;;;9.32;3.45;;;;;;;21.49;38.61;93774.41;2037375;70;20178;-77
2022/10/17 09:18:10;;;;;;;7.10;3.15;;;;;;;21.52;36.93;93775.94;2037477;70;20609;-76
2022/10/17 09:20:41;;;;;;;6.93;3.13;;;;;;;21.80;35.36;93771.25;2037390;70;20174;-75
2022/10/17 09:23:49;;;;;;;9.48;3.25;;;;;;;22.07;36.95;93770.03;2037272;70;20155;-74
2022/10/17 09:26:15;;;;;;;9.13;2.90;;;;;;;21.70;38.02;93764.41;2036390;70;20144;-74
2022/10/17 09:28:42;;;;;;;5.30;2.50;;;;;;;22.15;37.24;93766.75;2036755;70;20554;-74
2022/10/17 09:31:22;;;;;;;4.47;2.35;;;;;;;22.04;37.42;93759.94;2036761;70;20151;-75
2022/10/17 09:33:51;;;;;;;8.43;2.80;;;;;;;21.42;36.72;93759.13;2038627;70;20159;-74
2022/10/17 09:36:21;;;;;;;6.00;2.33;;;;;;;21.47;37.29;93768.59;2047355;70;20171;-75
2022/10/17 09:38:52;;;;;;;6.72;2.67;;;;;;;22.26;36.55;93759.97;2048184;70;20142;-75
2022/10/17 09:41:21;;;;;;;8.60;2.65;;;;;;;22.40;35.39;93765.44;2048379;70;20123;-75
2022/10/17 09:43:47;;;;;;;5.38;2.42;;;;;;;23.23;35.79;93761.69;2048527;70;20169;-76
2022/10/17 09:46:29;;;;;;;8.13;2.80;;;;;;;23.04;33.62;93762.50;2048998;70;20633;-74
2022/10/17 09:49:01;;;;;;;6.55;2.65;;;;;;;23.80;34.80;93759.75;2051469;70;20188;-73
2022/10/17 09:51:27;;;;;;;5.75;2.30;;;;;;;23.41;34.45;93761.47;2051305;70;20151;-73
2022/10/17 09:53:58;;;;;;;6.03;2.20;;;;;;;23.75;31.37;93758.91;2051317;70;20168;-73
2022/10/17 09:56:23;;;;;;;6.43;2.47;;;;;;;24.88;32.78;93759.72;2051355;70;20201;-74
2022/10/17 09:58:54;;;;;;;6.97;2.67;;;;;;;25.33;31.74;93755.00;2051462;70;20221;-74
2022/10/17 10:01:29;;;;;;;6.35;2.92;;;;;;;25.20;31.22;93741.72;2051010;70;20157;-74
2022/10/17 10:04:11;;;;;;;10.50;3.60;;;;;;;24.75;30.09;93752.94;2051261;70;20637;-75
2022/10/17 10:06:38;;;;;;;8.32;3.00;;;;;;;24.87;30.95;93751.75;2050747;70;20224;-76
2022/10/17 10:09:05;;;;;;;6.82;2.88;;;;;;;24.95;32.05;93749.78;2050949;70;20265;-76
2022/10/17 10:11:53;;;;;;;10.70;3.17;;;;;;;26.19;30.51;93745.97;2051433;70;20145;-75
2022/10/17 10:14:38;;;;;;;9.25;2.67;;;;;;;26.26;29.15;93744.69;2050982;70;20151;-79
2022/10/17 10:17:24;;;;;;;9.52;3.05;;;;;;;25.66;30.74;93747.03;2050948;70;20181;-81
2022/10/17 10:19:50;;;;;;;11.27;3.60;;;;;;;25.63;29.77;93737.63;2051042;70;20150;-82
2022/10/17 10:22:18;;;;;;;9.95;3.00;;;;;;;25.66;30.96;93738.41;2050906;70;20146;-77
2022/10/17 10:24:44;;;;;;;8.82;3.20;;;;;;;26.57;29.26;93740.22;2051088;70;20228;-76
2022/10/17 10:27:17;;;;;;;8.40;3.47;;;;;;;25.95;28.93;93733.97;2051179;70;20197;-76
2022/10/17 10:29:49;;;;;;;14.00;4.05;;;;;;;27.16;29.10;93733.94;2051588;70;20152;-77
2022/10/17 10:32:34;;;;;;;10.10;4.40;;;;;;;28.14;28.40;93735.97;2051484;70;20141;-77
2022/10/17 10:35:07;;;;;;;9.10;3.63;;;;;;;28.48;28.00;93738.50;2051604;70;20233;-77
2022/10/17 10:37:38;;;;;;;5.47;3.08;;;;;;;29.12;27.13;93734.75;2050788;70;20146;-76
2022/10/17 10:40:36;;;;;;;8.45;2.97;;;;;;;29.21;26.90;93729.72;2051663;70;20204;-76
2022/10/17 10:43:05;;;;;;;9.48;3.38;;;;;;;30.33;24.89;93729.56;2051503;70;20150;-79
2022/10/17 10:45:36;;;;;;;9.05;5.63;;;;;;;29.98;25.14;93732.34;2051425;70;20146;-77
2022/10/17 10:48:23;;;;;;;9.40;4.70;;;;;;;29.53;24.92;93737.19;2053725;70;20134;-77
2022/10/17 10:51:04;;;;;;;6.50;3.08;;;;;;;30.84;22.74;93721.72;2051720;70;20146;-80
2022/10/17 10:53:43;;;;;;;5.13;2.40;;;;;;;31.91;22.39;93731.06;2052543;70;20185;-80
2022/10/17 10:56:20;;;;;;;7.10;2.53;;;;;;;33.48;21.56;93727.16;2053496;70;20146;-80
2022/10/17 10:59:00;;;;;;;8.85;4.78;;;;;;;33.27;23.20;93720.78;2051615;70;20158;-78
2022/10/17 11:01:54;;;;;;;8.40;2.95;;;;;;;33.13;21.20;93724.56;2051443;70;20626;-77
2022/10/17 11:04:39;;;;;;;8.77;3.10;;;;;;;33.03;20.37;93721.69;2051650;70;20150;-77
2022/10/17 11:07:27;;;;;;;9.70;2.67;;;;;;;35.17;20.56;93726.53;2051615;70;20145;-78
2022/10/17 11:10:12;;;;;;;5.55;2.30;;;;;;;36.60;19.30;93728.22;2051606;70;20624;-78
2022/10/17 11:12:44;;;;;;;11.65;2.83;;;;;;;38.14;17.85;93725.22;2051562;70;20150;-78
2022/10/17 11:16:02;;;;;;;7.80;2.53;;;;;;;39.15;17.19;93717.81;2053770;70;20146;-76
2022/10/17 11:18:34;;;;;;;12.63;2.95;;;;;;;39.21;16.89;93716.91;2050829;70;20589;-78
2022/10/17 11:21:16;;;;;;;16.40;3.20;;;;;;;39.33;17.07;93714.31;2051600;70;20131;-78
2022/10/17 11:23:47;;;;;;;8.82;2.70;;;;;;;39.34;16.74;93721.63;2051514;70;20151;-78
2022/10/17 11:26:25;;;;;;;8.20;2.60;;;;;;;40.13;17.27;93715.25;2051493;70;20150;-78
2022/10/17 11:28:57;;;;;;;9.38;2.20;;;;;;;39.93;17.36;93713.03;2051544;70;20146;-78
2022/10/17 11:31:25;;;;;;;;;;;;;;;40.97;16.95;93712.16;2051596;70;20154;-78
2022/10/17 11:33:58;;;;;;;13.80;2.92;;;;;;;39.86;15.88;93712.53;2051602;70;20054;-77
2022/10/17 11:36:28;;;;;;;12.18;2.67;;;;;;;39.11;17.66;93706.88;2051476;70;20158;-77
2022/10/17 11:39:12;;;;;;;8.25;2.45;;;;;;;41.21;16.30;93716.38;2051419;70;20188;-77
2022/10/17 11:41:51;;;;;;;10.15;2.58;;;;;;;38.77;15.71;93705.06;2051405;70;20142;-77
2022/10/17 11:44:30;;;;;;;10.50;2.67;;;;;;;41.22;15.69;93705.25;2051483;70;20225;-75
2022/10/17 11:47:01;;;;;;;8.13;2.20;;;;;;;41.00;15.98;93698.75;2051799;70;20185;-76
2022/10/17 11:49:38;;;;;;;10.77;2.47;;;;;;;42.12;15.73;93696.31;2052033;70;20222;-76
2022/10/17 11:52:40;;;;;;;9.77;2.22;;;;;;;41.69;15.08;93704.06;2051877;70;20297;-76
2022/10/17 11:55:18;;;;;;;6.38;2.15;;;;;;;40.19;15.01;93693.69;2051952;70;20214;-75